Terminal Aerodrome Forecast
Issued by NWS

Home | Current Version | Previous Version | Text Only | Print | Product List | Glossary On
Versions: 1 2 3 4 5 6 7 8 9 10 11 12 13
000
FTUS44 KTSA 020100 AAA
TAFRVS
TAF AMD
KRVS 020109Z 0201/0224 17010KT P6SM BKN250
     FM021500 18012G20KT P6SM OVC025 PROB30 0215/0218 4SM -TSRA
      BKN050CB
     FM021800 19013KT P6SM BKN050 PROB30 0218/0224 2SM +TSRA
      BKN030CB=

USA.gov is the U.S. government's official web portal to all federal, state and local government web resources and services.